sensor_id;sensor_type;location;lat;lon;timestamp;temperature;humidity
21298;DHT22;10808;48.010;11.326;2022-09-01T00:01:55;16.50;99.90
21298;DHT22;10808;48.010;11.326;2022-09-01T00:04:24;16.50;99.90
21298;DHT22;10808;48.010;11.326;2022-09-01T00:06:53;16.50;99.90
21298;DHT22;10808;48.010;11.326;2022-09-01T00:09:22;16.50;99.90
21298;DHT22;10808;48.010;11.326;2022-09-01T00:11:51;16.50;99.90
21298;DHT22;10808;48.010;11.326;2022-09-01T00:14:19;16.50;99.90
21298;DHT22;10808;48.010;11.326;2022-09-01T00:16:46;16.40;99.90
21298;DHT22;10808;48.010;11.326;2022-09-01T00:19:12;16.40;99.90
21298;DHT22;10808;48.010;11.326;2022-09-01T00:21:42;16.40;99.90
21298;DHT22;10808;48.010;11.326;2022-09-01T00:24:10;16.40;99.90
21298;DHT22;10808;48.010;11.326;2022-09-01T00:26:37;16.40;99.90
21298;DHT22;10808;48.010;11.326;2022-09-01T00:29:04;16.40;99.90
21298;DHT22;10808;48.010;11.326;2022-09-01T00:31:30;16.40;99.90
21298;DHT22;10808;48.010;11.326;2022-09-01T00:33:59;16.40;99.90
21298;DHT22;10808;48.010;11.326;2022-09-01T00:36:26;16.30;99.90
21298;DHT22;10808;48.010;11.326;2022-09-01T00:38:52;16.30;99.90
21298;DHT22;10808;48.010;11.326;2022-09-01T00:41:20;16.30;99.90
21298;DHT22;10808;48.010;11.326;2022-09-01T00:44:22;16.30;99.90
21298;DHT22;10808;48.010;11.326;2022-09-01T00:46:46;16.30;99.90
21298;DHT22;10808;48.010;11.326;2022-09-01T00:49:26;16.30;99.90
21298;DHT22;10808;48.010;11.326;2022-09-01T00:52:06;16.30;99.90
21298;DHT22;10808;48.010;11.326;2022-09-01T00:54:36;16.30;99.90
21298;DHT22;10808;48.010;11.326;2022-09-01T00:57:05;16.30;99.90
21298;DHT22;10808;48.010;11.326;2022-09-01T00:59:35;16.30;99.90
21298;DHT22;10808;48.010;11.326;2022-09-01T01:02:03;16.20;99.90
21298;DHT22;10808;48.010;11.326;2022-09-01T01:04:29;16.30;99.90
21298;DHT22;10808;48.010;11.326;2022-09-01T01:06:58;16.20;99.90
21298;DHT22;10808;48.010;11.326;2022-09-01T01:09:29;16.10;99.90
21298;DHT22;10808;48.010;11.326;2022-09-01T01:11:57;16.20;99.90
21298;DHT22;10808;48.010;11.326;2022-09-01T01:14:27;16.20;99.90
21298;DHT22;10808;48.010;11.326;2022-09-01T01:16:58;16.20;99.90
21298;DHT22;10808;48.010;11.326;2022-09-01T01:19:35;16.20;99.90
21298;DHT22;10808;48.010;11.326;2022-09-01T01:30:40;16.20;99.90
21298;DHT22;10808;48.010;11.326;2022-09-01T01:33:07;16.20;99.90
21298;DHT22;10808;48.010;11.326;2022-09-01T01:35:34;16.20;99.90
21298;DHT22;10808;48.010;11.326;2022-09-01T01:38:02;16.20;99.90
21298;DHT22;10808;48.010;11.326;2022-09-01T01:40:29;16.10;99.90
21298;DHT22;10808;48.010;11.326;2022-09-01T01:42:55;16.20;99.90
21298;DHT22;10808;48.010;11.326;2022-09-01T01:45:23;16.20;99.90
21298;DHT22;10808;48.010;11.326;2022-09-01T01:47:51;16.20;99.90
21298;DHT22;10808;48.010;11.326;2022-09-01T01:50:23;16.20;99.90
21298;DHT22;10808;48.010;11.326;2022-09-01T01:52:51;16.30;99.90
21298;DHT22;10808;48.010;11.326;2022-09-01T01:55:17;16.20;99.90
21298;DHT22;10808;48.010;11.326;2022-09-01T01:57:45;16.20;99.90
21298;DHT22;10808;48.010;11.326;2022-09-01T02:00:18;16.20;99.90
21298;DHT22;10808;48.010;11.326;2022-09-01T02:02:46;16.20;99.90
21298;DHT22;10808;48.010;11.326;2022-09-01T02:05:23;16.20;99.90
21298;DHT22;10808;48.010;11.326;2022-09-01T02:07:54;16.20;99.90
21298;DHT22;10808;48.010;11.326;2022-09-01T02:10:23;16.20;99.90
21298;DHT22;10808;48.010;11.326;2022-09-01T02:12:49;16.20;99.90
21298;DHT22;10808;48.010;11.326;2022-09-01T02:15:16;16.20;99.90
21298;DHT22;10808;48.010;11.326;2022-09-01T02:17:42;16.20;99.90
21298;DHT22;10808;48.010;11.326;2022-09-01T02:20:09;16.20;99.90
21298;DHT22;10808;48.010;11.326;2022-09-01T02:22:36;16.20;99.90
21298;DHT22;10808;48.010;11.326;2022-09-01T02:25:05;16.20;99.90
21298;DHT22;10808;48.010;11.326;2022-09-01T02:27:32;16.20;99.90
21298;DHT22;10808;48.010;11.326;2022-09-01T02:30:02;16.20;99.90
21298;DHT22;10808;48.010;11.326;2022-09-01T02:32:28;16.20;99.90
21298;DHT22;10808;48.010;11.326;2022-09-01T02:34:54;16.20;99.90
21298;DHT22;10808;48.010;11.326;2022-09-01T02:37:22;16.20;99.90
21298;DHT22;10808;48.010;11.326;2022-09-01T02:39:51;16.20;99.90
21298;DHT22;10808;48.010;11.326;2022-09-01T02:42:24;16.20;99.90
21298;DHT22;10808;48.010;11.326;2022-09-01T02:44:55;16.10;99.90
21298;DHT22;10808;48.010;11.326;2022-09-01T02:47:22;16.10;99.90
21298;DHT22;10808;48.010;11.326;2022-09-01T02:49:49;16.10;99.90
21298;DHT22;10808;48.010;11.326;2022-09-01T02:52:16;16.10;99.90
21298;DHT22;10808;48.010;11.326;2022-09-01T02:54:46;16.10;99.90
21298;DHT22;10808;48.010;11.326;2022-09-01T02:57:15;16.20;99.90
21298;DHT22;10808;48.010;11.326;2022-09-01T02:59:42;16.20;99.90
21298;DHT22;10808;48.010;11.326;2022-09-01T03:02:08;16.20;99.90
21298;DHT22;10808;48.010;11.326;2022-09-01T03:04:34;16.10;99.90
21298;DHT22;10808;48.010;11.326;2022-09-01T03:07:03;16.10;99.90
21298;DHT22;10808;48.010;11.326;2022-09-01T03:09:30;16.10;99.90
21298;DHT22;10808;48.010;11.326;2022-09-01T03:11:58;16.00;99.90
21298;DHT22;10808;48.010;11.326;2022-09-01T03:14:24;16.00;99.90
21298;DHT22;10808;48.010;11.326;2022-09-01T03:16:51;16.00;99.90
21298;DHT22;10808;48.010;11.326;2022-09-01T03:19:18;15.90;99.90
21298;DHT22;10808;48.010;11.326;2022-09-01T03:21:45;15.90;99.90
21298;DHT22;10808;48.010;11.326;2022-09-01T03:24:13;15.90;99.90
21298;DHT22;10808;48.010;11.326;2022-09-01T03:26:42;15.90;99.90
21298;DHT22;10808;48.010;11.326;2022-09-01T03:29:09;15.90;99.90
21298;DHT22;10808;48.010;11.326;2022-09-01T03:31:36;15.80;99.90
21298;DHT22;10808;48.010;11.326;2022-09-01T03:34:03;15.80;99.90
21298;DHT22;10808;48.010;11.326;2022-09-01T03:36:31;15.80;99.90
21298;DHT22;10808;48.010;11.326;2022-09-01T03:38:58;15.70;99.90
21298;DHT22;10808;48.010;11.326;2022-09-01T03:41:26;15.70;99.90
21298;DHT22;10808;48.010;11.326;2022-09-01T03:43:56;15.70;99.90
21298;DHT22;10808;48.010;11.326;2022-09-01T03:46:24;15.60;99.90
21298;DHT22;10808;48.010;11.326;2022-09-01T03:48:56;15.60;99.90
21298;DHT22;10808;48.010;11.326;2022-09-01T03:51:28;15.60;99.90
21298;DHT22;10808;48.010;11.326;2022-09-01T03:53:56;15.60;99.90
21298;DHT22;10808;48.010;11.326;2022-09-01T03:56:23;15.60;99.90
21298;DHT22;10808;48.010;11.326;2022-09-01T03:58:51;15.50;99.90
21298;DHT22;10808;48.010;11.326;2022-09-01T04:01:18;15.50;99.90
21298;DHT22;10808;48.010;11.326;2022-09-01T04:03:45;15.40;99.90
21298;DHT22;10808;48.010;11.326;2022-09-01T04:06:14;15.40;99.90
21298;DHT22;10808;48.010;11.326;2022-09-01T04:08:43;15.40;99.90
21298;DHT22;10808;48.010;11.326;2022-09-01T04:11:15;15.40;99.90
21298;DHT22;10808;48.010;11.326;2022-09-01T04:13:44;15.40;99.90
21298;DHT22;10808;48.010;11.326;2022-09-01T04:16:21;15.30;99.90
21298;DHT22;10808;48.010;11.326;2022-09-01T04:19:07;15.30;99.90
21298;DHT22;10808;48.010;11.326;2022-09-01T04:21:46;15.20;99.90
21298;DHT22;10808;48.010;11.326;2022-09-01T04:24:12;15.20;99.90
21298;DHT22;10808;48.010;11.326;2022-09-01T04:26:41;15.20;99.90
21298;DHT22;10808;48.010;11.326;2022-09-01T04:29:08;15.20;99.90
21298;DHT22;10808;48.010;11.326;2022-09-01T04:31:36;15.10;99.90
21298;DHT22;10808;48.010;11.326;2022-09-01T04:34:05;15.10;99.90
21298;DHT22;10808;48.010;11.326;2022-09-01T04:36:40;15.10;99.90
21298;DHT22;10808;48.010;11.326;2022-09-01T04:39:07;15.10;99.90
21298;DHT22;10808;48.010;11.326;2022-09-01T04:41:43;15.10;99.90
21298;DHT22;10808;48.010;11.326;2022-09-01T04:44:12;15.00;99.90
21298;DHT22;10808;48.010;11.326;2022-09-01T04:46:41;15.00;99.90
21298;DHT22;10808;48.010;11.326;2022-09-01T04:49:11;15.00;99.90
21298;DHT22;10808;48.010;11.326;2022-09-01T04:51:42;15.00;99.90
21298;DHT22;10808;48.010;11.326;2022-09-01T04:54:09;15.00;99.90
21298;DHT22;10808;48.010;11.326;2022-09-01T04:56:40;15.00;99.90
21298;DHT22;10808;48.010;11.326;2022-09-01T04:59:07;15.00;99.90
21298;DHT22;10808;48.010;11.326;2022-09-01T05:01:37;14.90;99.90
21298;DHT22;10808;48.010;11.326;2022-09-01T05:04:12;14.90;99.90
21298;DHT22;10808;48.010;11.326;2022-09-01T05:06:41;14.90;99.90
21298;DHT22;10808;48.010;11.326;2022-09-01T05:09:09;14.90;99.90
21298;DHT22;10808;48.010;11.326;2022-09-01T05:11:37;15.00;99.90
21298;DHT22;10808;48.010;11.326;2022-09-01T05:14:07;15.00;99.90
21298;DHT22;10808;48.010;11.326;2022-09-01T05:16:34;15.10;99.90
21298;DHT22;10808;48.010;11.326;2022-09-01T05:19:01;15.10;99.90
21298;DHT22;10808;48.010;11.326;2022-09-01T05:21:27;15.10;99.90
21298;DHT22;10808;48.010;11.326;2022-09-01T05:23:56;15.20;99.90
21298;DHT22;10808;48.010;11.326;2022-09-01T05:26:29;15.20;99.90
21298;DHT22;10808;48.010;11.326;2022-09-01T05:29:03;15.20;99.90
21298;DHT22;10808;48.010;11.326;2022-09-01T05:31:30;15.20;99.90
21298;DHT22;10808;48.010;11.326;2022-09-01T05:33:59;15.30;99.90
21298;DHT22;10808;48.010;11.326;2022-09-01T05:36:26;15.30;99.90
21298;DHT22;10808;48.010;11.326;2022-09-01T05:38:53;15.40;99.90
21298;DHT22;10808;48.010;11.326;2022-09-01T05:41:20;15.50;99.90
21298;DHT22;10808;48.010;11.326;2022-09-01T05:43:48;15.50;99.90
21298;DHT22;10808;48.010;11.326;2022-09-01T05:46:22;15.50;99.90
21298;DHT22;10808;48.010;11.326;2022-09-01T05:48:50;15.60;99.90
21298;DHT22;10808;48.010;11.326;2022-09-01T05:51:19;15.60;99.90
21298;DHT22;10808;48.010;11.326;2022-09-01T05:53:47;15.60;99.90
21298;DHT22;10808;48.010;11.326;2022-09-01T05:56:17;15.60;99.90
21298;DHT22;10808;48.010;11.326;2022-09-01T05:58:45;15.60;99.90
21298;DHT22;10808;48.010;11.326;2022-09-01T06:01:20;15.60;99.90
21298;DHT22;10808;48.010;11.326;2022-09-01T06:03:48;15.60;99.90
21298;DHT22;10808;48.010;11.326;2022-09-01T06:06:16;15.60;99.90
21298;DHT22;10808;48.010;11.326;2022-09-01T06:08:43;15.50;99.90
21298;DHT22;10808;48.010;11.326;2022-09-01T06:11:14;15.50;99.90
21298;DHT22;10808;48.010;11.326;2022-09-01T06:13:41;15.50;99.90
21298;DHT22;10808;48.010;11.326;2022-09-01T06:16:08;15.60;99.90
21298;DHT22;10808;48.010;11.326;2022-09-01T06:18:35;15.50;99.90
21298;DHT22;10808;48.010;11.326;2022-09-01T06:21:03;15.50;99.90
21298;DHT22;10808;48.010;11.326;2022-09-01T06:23:30;15.60;99.90
21298;DHT22;10808;48.010;11.326;2022-09-01T06:25:56;15.60;99.90
21298;DHT22;10808;48.010;11.326;2022-09-01T06:28:23;15.50;99.90
21298;DHT22;10808;48.010;11.326;2022-09-01T06:30:49;15.50;99.90
21298;DHT22;10808;48.010;11.326;2022-09-01T06:33:16;15.50;99.90
21298;DHT22;10808;48.010;11.326;2022-09-01T06:35:44;15.50;99.90
21298;DHT22;10808;48.010;11.326;2022-09-01T06:38:12;15.60;99.90
21298;DHT22;10808;48.010;11.326;2022-09-01T06:40:40;15.60;99.90
21298;DHT22;10808;48.010;11.326;2022-09-01T06:43:07;15.70;99.90
21298;DHT22;10808;48.010;11.326;2022-09-01T06:45:40;15.70;99.90
21298;DHT22;10808;48.010;11.326;2022-09-01T06:48:07;15.70;99.90
21298;DHT22;10808;48.010;11.326;2022-09-01T06:50:34;15.80;99.90
21298;DHT22;10808;48.010;11.326;2022-09-01T06:53:00;15.80;99.90
21298;DHT22;10808;48.010;11.326;2022-09-01T06:55:37;15.90;99.90
21298;DHT22;10808;48.010;11.326;2022-09-01T06:58:07;15.90;99.90
21298;DHT22;10808;48.010;11.326;2022-09-01T07:00:38;15.90;99.90
21298;DHT22;10808;48.010;11.326;2022-09-01T07:03:09;15.90;99.90
21298;DHT22;10808;48.010;11.326;2022-09-01T07:05:44;15.90;99.90
21298;DHT22;10808;48.010;11.326;2022-09-01T07:08:13;16.00;99.90
21298;DHT22;10808;48.010;11.326;2022-09-01T07:10:48;16.10;99.90
21298;DHT22;10808;48.010;11.326;2022-09-01T07:13:17;16.00;99.90
21298;DHT22;10808;48.010;11.326;2022-09-01T07:15:49;16.10;99.90
21298;DHT22;10808;48.010;11.326;2022-09-01T07:18:17;16.20;99.90
21298;DHT22;10808;48.010;11.326;2022-09-01T07:20:47;16.20;99.90
21298;DHT22;10808;48.010;11.326;2022-09-01T07:23:15;16.20;99.90
21298;DHT22;10808;48.010;11.326;2022-09-01T07:25:43;16.20;99.90
21298;DHT22;10808;48.010;11.326;2022-09-01T07:28:11;16.30;99.90
21298;DHT22;10808;48.010;11.326;2022-09-01T07:30:46;16.30;99.90
21298;DHT22;10808;48.010;11.326;2022-09-01T07:33:15;16.40;99.90
21298;DHT22;10808;48.010;11.326;2022-09-01T07:35:46;16.40;99.90
21298;DHT22;10808;48.010;11.326;2022-09-01T07:38:12;16.50;99.90
21298;DHT22;10808;48.010;11.326;2022-09-01T07:40:40;16.50;99.90
21298;DHT22;10808;48.010;11.326;2022-09-01T07:43:13;16.50;99.90
21298;DHT22;10808;48.010;11.326;2022-09-01T07:45:43;16.50;99.90
21298;DHT22;10808;48.010;11.326;2022-09-01T07:48:11;16.60;99.90
21298;DHT22;10808;48.010;11.326;2022-09-01T07:50:41;16.70;99.90
21298;DHT22;10808;48.010;11.326;2022-09-01T07:53:13;16.70;99.90
21298;DHT22;10808;48.010;11.326;2022-09-01T07:55:44;16.90;99.90
21298;DHT22;10808;48.010;11.326;2022-09-01T07:58:12;16.90;99.90
21298;DHT22;10808;48.010;11.326;2022-09-01T08:00:40;17.00;99.90
21298;DHT22;10808;48.010;11.326;2022-09-01T08:03:08;17.10;99.90
21298;DHT22;10808;48.010;11.326;2022-09-01T08:05:34;17.20;99.90
21298;DHT22;10808;48.010;11.326;2022-09-01T08:08:00;17.30;99.90
21298;DHT22;10808;48.010;11.326;2022-09-01T08:10:27;17.40;99.90
21298;DHT22;10808;48.010;11.326;2022-09-01T08:12:53;17.50;99.90
21298;DHT22;10808;48.010;11.326;2022-09-01T08:15:19;17.50;99.90
21298;DHT22;10808;48.010;11.326;2022-09-01T08:17:45;17.60;99.90
21298;DHT22;10808;48.010;11.326;2022-09-01T08:20:12;17.70;99.90
21298;DHT22;10808;48.010;11.326;2022-09-01T08:22:38;17.80;99.90
21298;DHT22;10808;48.010;11.326;2022-09-01T08:25:06;17.80;99.90
21298;DHT22;10808;48.010;11.326;2022-09-01T08:27:34;17.80;99.90
21298;DHT22;10808;48.010;11.326;2022-09-01T08:30:07;17.90;99.90
21298;DHT22;10808;48.010;11.326;2022-09-01T08:32:34;18.00;99.90
21298;DHT22;10808;48.010;11.326;2022-09-01T08:35:00;18.20;99.90
21298;DHT22;10808;48.010;11.326;2022-09-01T08:37:27;18.40;99.90
21298;DHT22;10808;48.010;11.326;2022-09-01T08:39:53;18.50;99.90
21298;DHT22;10808;48.010;11.326;2022-09-01T08:43:09;18.60;99.90
21298;DHT22;10808;48.010;11.326;2022-09-01T08:45:49;18.70;99.90
21298;DHT22;10808;48.010;11.326;2022-09-01T08:48:24;18.90;99.90
21298;DHT22;10808;48.010;11.326;2022-09-01T08:57:43;19.50;99.90
21298;DHT22;10808;48.010;11.326;2022-09-01T09:00:13;19.70;99.90
21298;DHT22;10808;48.010;11.326;2022-09-01T09:08:41;20.00;99.90
21298;DHT22;10808;48.010;11.326;2022-09-01T09:11:16;20.30;99.90
21298;DHT22;10808;48.010;11.326;2022-09-01T09:16:40;20.70;99.90
21298;DHT22;10808;48.010;11.326;2022-09-01T09:19:21;20.80;99.90
21298;DHT22;10808;48.010;11.326;2022-09-01T09:21:51;21.00;99.90
21298;DHT22;10808;48.010;11.326;2022-09-01T09:24:28;21.20;99.90
21298;DHT22;10808;48.010;11.326;2022-09-01T09:26:57;21.50;99.90
21298;DHT22;10808;48.010;11.326;2022-09-01T09:29:25;21.90;99.90
21298;DHT22;10808;48.010;11.326;2022-09-01T09:32:09;22.10;99.90
21298;DHT22;10808;48.010;11.326;2022-09-01T09:34:39;22.50;99.90
21298;DHT22;10808;48.010;11.326;2022-09-01T09:37:26;22.60;99.90
21298;DHT22;10808;48.010;11.326;2022-09-01T09:40:23;22.60;99.90
21298;DHT22;10808;48.010;11.326;2022-09-01T09:47:59;22.80;99.90
21298;DHT22;10808;48.010;11.326;2022-09-01T09:50:30;22.90;99.90
21298;DHT22;10808;48.010;11.326;2022-09-01T09:55:50;23.10;99.90
21298;DHT22;10808;48.010;11.326;2022-09-01T09:58:21;23.20;99.90
21298;DHT22;10808;48.010;11.326;2022-09-01T10:01:07;23.40;99.90
21298;DHT22;10808;48.010;11.326;2022-09-01T10:03:45;23.30;99.90
21298;DHT22;10808;48.010;11.326;2022-09-01T10:09:04;23.20;99.90
21298;DHT22;10808;48.010;11.326;2022-09-01T10:11:39;23.20;99.90
21298;DHT22;10808;48.010;11.326;2022-09-01T10:14:13;23.30;99.90
21298;DHT22;10808;48.010;11.326;2022-09-01T10:16:42;23.30;99.90
21298;DHT22;10808;48.010;11.326;2022-09-01T10:19:12;23.40;99.90
21298;DHT22;10808;48.010;11.326;2022-09-01T10:21:41;23.50;99.90
21298;DHT22;10808;48.010;11.326;2022-09-01T10:24:30;23.50;99.90
21298;DHT22;10808;48.010;11.326;2022-09-01T10:27:05;23.60;99.90
21298;DHT22;10808;48.010;11.326;2022-09-01T10:32:24;23.80;99.90
21298;DHT22;10808;48.010;11.326;2022-09-01T10:34:52;23.80;99.90
21298;DHT22;10808;48.010;11.326;2022-09-01T10:37:18;24.00;99.90
21298;DHT22;10808;48.010;11.326;2022-09-01T10:40:50;24.40;99.90
21298;DHT22;10808;48.010;11.326;2022-09-01T10:42:59;24.60;99.90
21298;DHT22;10808;48.010;11.326;2022-09-01T10:45:44;24.80;99.90
21298;DHT22;10808;48.010;11.326;2022-09-01T10:50:51;25.10;99.90
21298;DHT22;10808;48.010;11.326;2022-09-01T10:56:18;25.50;99.90
21298;DHT22;10808;48.010;11.326;2022-09-01T11:04:11;25.70;99.40
21298;DHT22;10808;48.010;11.326;2022-09-01T11:12:01;26.10;97.30
21298;DHT22;10808;48.010;11.326;2022-09-01T11:14:32;26.00;97.80
21298;DHT22;10808;48.010;11.326;2022-09-01T11:17:17;26.10;98.60
21298;DHT22;10808;48.010;11.326;2022-09-01T11:22:39;26.30;97.50
21298;DHT22;10808;48.010;11.326;2022-09-01T11:25:11;26.50;98.00
21298;DHT22;10808;48.010;11.326;2022-09-01T11:27:56;26.90;98.60
21298;DHT22;10808;48.010;11.326;2022-09-01T11:35:44;27.50;94.60
21298;DHT22;10808;48.010;11.326;2022-09-01T11:38:14;27.80;94.70
21298;DHT22;10808;48.010;11.326;2022-09-01T11:40:41;27.90;93.70
21298;DHT22;10808;48.010;11.326;2022-09-01T11:43:14;28.10;94.10
21298;DHT22;10808;48.010;11.326;2022-09-01T11:48:32;28.60;94.10
21298;DHT22;10808;48.010;11.326;2022-09-01T11:51:00;28.70;92.60
21298;DHT22;10808;48.010;11.326;2022-09-01T11:53:27;28.80;93.30
21298;DHT22;10808;48.010;11.326;2022-09-01T11:55:55;28.80;93.30
21298;DHT22;10808;48.010;11.326;2022-09-01T12:01:11;29.40;92.10
21298;DHT22;10808;48.010;11.326;2022-09-01T12:03:37;29.60;90.80
21298;DHT22;10808;48.010;11.326;2022-09-01T12:06:06;29.60;89.50
21298;DHT22;10808;48.010;11.326;2022-09-01T12:08:36;29.40;88.50
21298;DHT22;10808;48.010;11.326;2022-09-01T12:14:05;29.30;90.00
21298;DHT22;10808;48.010;11.326;2022-09-01T12:16:33;29.40;89.80
21298;DHT22;10808;48.010;11.326;2022-09-01T12:19:03;29.50;90.70
21298;DHT22;10808;48.010;11.326;2022-09-01T12:21:33;29.80;90.50
21298;DHT22;10808;48.010;11.326;2022-09-01T12:24:16;30.00;90.40
21298;DHT22;10808;48.010;11.326;2022-09-01T12:26:44;30.10;87.30
21298;DHT22;10808;48.010;11.326;2022-09-01T12:29:11;30.00;87.20
21298;DHT22;10808;48.010;11.326;2022-09-01T12:31:44;30.00;87.10
21298;DHT22;10808;48.010;11.326;2022-09-01T12:34:42;29.80;88.00
21298;DHT22;10808;48.010;11.326;2022-09-01T12:37:23;30.00;88.10
21298;DHT22;10808;48.010;11.326;2022-09-01T12:39:53;30.20;87.10
21298;DHT22;10808;48.010;11.326;2022-09-01T12:45:00;30.10;82.70
21298;DHT22;10808;48.010;11.326;2022-09-01T12:50:06;29.80;82.70
21298;DHT22;10808;48.010;11.326;2022-09-01T12:52:34;30.00;84.30
21298;DHT22;10808;48.010;11.326;2022-09-01T12:57:36;30.20;83.70
21298;DHT22;10808;48.010;11.326;2022-09-01T13:07:58;30.90;82.30
21298;DHT22;10808;48.010;11.326;2022-09-01T13:10:30;31.00;81.50
21298;DHT22;10808;48.010;11.326;2022-09-01T13:12:56;31.10;80.40
21298;DHT22;10808;48.010;11.326;2022-09-01T13:15:27;31.00;76.70
21298;DHT22;10808;48.010;11.326;2022-09-01T13:17:53;31.00;78.20
21298;DHT22;10808;48.010;11.326;2022-09-01T13:20:19;31.00;76.70
21298;DHT22;10808;48.010;11.326;2022-09-01T13:22:45;31.10;76.90
21298;DHT22;10808;48.010;11.326;2022-09-01T13:25:13;31.40;78.80
21298;DHT22;10808;48.010;11.326;2022-09-01T13:27:40;31.40;75.00
21298;DHT22;10808;48.010;11.326;2022-09-01T13:30:14;31.30;73.40
21298;DHT22;10808;48.010;11.326;2022-09-01T13:32:42;31.50;74.30
21298;DHT22;10808;48.010;11.326;2022-09-01T13:35:11;31.60;76.70
21298;DHT22;10808;48.010;11.326;2022-09-01T13:37:37;31.50;73.50
21298;DHT22;10808;48.010;11.326;2022-09-01T13:40:05;31.50;75.60
21298;DHT22;10808;48.010;11.326;2022-09-01T13:42:45;31.70;76.50
21298;DHT22;10808;48.010;11.326;2022-09-01T13:45:12;31.70;75.10
21298;DHT22;10808;48.010;11.326;2022-09-01T13:47:39;31.80;72.30
21298;DHT22;10808;48.010;11.326;2022-09-01T13:50:06;31.80;71.80
21298;DHT22;10808;48.010;11.326;2022-09-01T13:52:33;32.00;73.40
21298;DHT22;10808;48.010;11.326;2022-09-01T13:54:59;32.10;72.00
21298;DHT22;10808;48.010;11.326;2022-09-01T13:57:26;31.90;71.60
21298;DHT22;10808;48.010;11.326;2022-09-01T13:59:52;31.70;74.20
21298;DHT22;10808;48.010;11.326;2022-09-01T14:02:20;31.40;75.40
21298;DHT22;10808;48.010;11.326;2022-09-01T14:04:46;31.30;76.00
21298;DHT22;10808;48.010;11.326;2022-09-01T14:07:12;31.30;75.20
21298;DHT22;10808;48.010;11.326;2022-09-01T14:09:38;31.20;75.70
21298;DHT22;10808;48.010;11.326;2022-09-01T14:12:05;31.30;75.60
21298;DHT22;10808;48.010;11.326;2022-09-01T14:14:32;31.50;75.00
21298;DHT22;10808;48.010;11.326;2022-09-01T14:16:58;31.60;74.20
21298;DHT22;10808;48.010;11.326;2022-09-01T14:19:24;31.60;72.10
21298;DHT22;10808;48.010;11.326;2022-09-01T14:21:50;31.60;72.10
21298;DHT22;10808;48.010;11.326;2022-09-01T14:24:16;31.60;73.70
21298;DHT22;10808;48.010;11.326;2022-09-01T14:26:45;31.60;73.80
21298;DHT22;10808;48.010;11.326;2022-09-01T14:29:11;31.60;71.10
21298;DHT22;10808;48.010;11.326;2022-09-01T14:31:37;31.60;72.30
21298;DHT22;10808;48.010;11.326;2022-09-01T14:34:04;31.40;71.80
21298;DHT22;10808;48.010;11.326;2022-09-01T14:36:31;31.10;73.00
21298;DHT22;10808;48.010;11.326;2022-09-01T14:38:57;30.70;73.40
21298;DHT22;10808;48.010;11.326;2022-09-01T14:41:24;30.60;74.20
21298;DHT22;10808;48.010;11.326;2022-09-01T14:43:51;30.60;75.00
21298;DHT22;10808;48.010;11.326;2022-09-01T14:46:18;30.50;75.80
21298;DHT22;10808;48.010;11.326;2022-09-01T14:48:45;30.50;74.40
21298;DHT22;10808;48.010;11.326;2022-09-01T14:51:24;30.60;76.90
21298;DHT22;10808;48.010;11.326;2022-09-01T14:53:52;30.80;76.50
21298;DHT22;10808;48.010;11.326;2022-09-01T14:56:19;30.80;74.20
21298;DHT22;10808;48.010;11.326;2022-09-01T14:58:47;30.80;73.70
21298;DHT22;10808;48.010;11.326;2022-09-01T15:01:18;30.70;70.80
21298;DHT22;10808;48.010;11.326;2022-09-01T15:03:46;30.60;72.10
21298;DHT22;10808;48.010;11.326;2022-09-01T15:06:14;30.70;72.80
21298;DHT22;10808;48.010;11.326;2022-09-01T15:08:41;30.50;70.80
21298;DHT22;10808;48.010;11.326;2022-09-01T15:11:14;30.50;72.80
21298;DHT22;10808;48.010;11.326;2022-09-01T15:13:40;30.40;72.50
21298;DHT22;10808;48.010;11.326;2022-09-01T15:16:16;30.30;73.50
21298;DHT22;10808;48.010;11.326;2022-09-01T15:18:43;30.40;74.10
21298;DHT22;10808;48.010;11.326;2022-09-01T15:21:28;30.40;74.10
21298;DHT22;10808;48.010;11.326;2022-09-01T15:23:59;30.10;74.90
21298;DHT22;10808;48.010;11.326;2022-09-01T15:26:25;29.90;75.50
21298;DHT22;10808;48.010;11.326;2022-09-01T15:28:52;29.70;75.80
21298;DHT22;10808;48.010;11.326;2022-09-01T15:31:20;29.70;77.60
21298;DHT22;10808;48.010;11.326;2022-09-01T15:33:47;29.80;76.10
21298;DHT22;10808;48.010;11.326;2022-09-01T15:36:19;29.90;76.30
21298;DHT22;10808;48.010;11.326;2022-09-01T15:38:46;29.80;75.50
21298;DHT22;10808;48.010;11.326;2022-09-01T15:41:25;29.90;74.70
21298;DHT22;10808;48.010;11.326;2022-09-01T15:43:51;29.90;75.20
21298;DHT22;10808;48.010;11.326;2022-09-01T15:46:18;29.70;75.60
21298;DHT22;10808;48.010;11.326;2022-09-01T15:48:45;29.80;74.90
21298;DHT22;10808;48.010;11.326;2022-09-01T15:51:27;29.80;73.10
21298;DHT22;10808;48.010;11.326;2022-09-01T15:54:09;29.70;75.30
21298;DHT22;10808;48.010;11.326;2022-09-01T15:56:35;29.60;73.00
21298;DHT22;10808;48.010;11.326;2022-09-01T15:59:03;29.30;69.90
21298;DHT22;10808;48.010;11.326;2022-09-01T16:01:33;28.90;71.00
21298;DHT22;10808;48.010;11.326;2022-09-01T16:04:01;28.60;71.70
21298;DHT22;10808;48.010;11.326;2022-09-01T16:06:27;28.40;72.90
21298;DHT22;10808;48.010;11.326;2022-09-01T16:08:54;28.10;72.20
21298;DHT22;10808;48.010;11.326;2022-09-01T16:11:21;28.00;76.20
21298;DHT22;10808;48.010;11.326;2022-09-01T16:13:48;27.80;73.90
21298;DHT22;10808;48.010;11.326;2022-09-01T16:21:53;27.20;75.80
21298;DHT22;10808;48.010;11.326;2022-09-01T16:24:23;27.00;75.70
21298;DHT22;10808;48.010;11.326;2022-09-01T16:26:50;26.70;74.60
21298;DHT22;10808;48.010;11.326;2022-09-01T16:29:23;26.50;77.00
21298;DHT22;10808;48.010;11.326;2022-09-01T16:31:54;26.30;77.40
21298;DHT22;10808;48.010;11.326;2022-09-01T16:34:21;26.10;77.30
21298;DHT22;10808;48.010;11.326;2022-09-01T16:37:51;26.00;77.70
21298;DHT22;10808;48.010;11.326;2022-09-01T16:40:20;25.80;76.50
21298;DHT22;10808;48.010;11.326;2022-09-01T16:43:01;25.60;78.30
21298;DHT22;10808;48.010;11.326;2022-09-01T16:45:49;25.40;79.80
21298;DHT22;10808;48.010;11.326;2022-09-01T16:54:02;24.90;81.20
21298;DHT22;10808;48.010;11.326;2022-09-01T16:56:53;24.80;81.50
21298;DHT22;10808;48.010;11.326;2022-09-01T16:59:42;24.60;83.00
21298;DHT22;10808;48.010;11.326;2022-09-01T17:05:29;24.10;82.80
21298;DHT22;10808;48.010;11.326;2022-09-01T17:08:18;23.90;83.50
21298;DHT22;10808;48.010;11.326;2022-09-01T17:11:06;23.80;84.30
21298;DHT22;10808;48.010;11.326;2022-09-01T17:13:42;23.70;84.40
21298;DHT22;10808;48.010;11.326;2022-09-01T17:16:37;23.50;85.00